Kelsay, Texas
Current Conditions -  °F | °C
As of 8:35 PM on Friday 24 Oct 2014 (Local Time) from KBKS Reporting Station
Clear Clear  
Wind Chill: 71°   Ceiling: Unl
Heat Index: 71°   Visibility: 10mi
Dew Point: 59°   Wind: 3mph
Humidity: 66%   Direction: 110°ESE
Pressure: 30.11"   Gusts: NA
Location:  26.9826°N, 98.212°W
Report Text: KBKS 250135Z AUTO 11003KT 10SM CLR 22/15 A3011 RMK AO1 T02160150
Loading
Personal Weather Stations






























Interactive Weather Map
Tropical Storm Tracking
New forecast layout! Learn more

10-Day Weather Forecast

Advertisements
Track Severe Weather on mobile